Latest Coastal Weather Observations for Holmes Reef

IDQ60701

Issued at 10:35 am EST Sunday 26 October 2014 (issued every 10 minutes, with the page automatically refreshed every 10 minutes)

About coastal observations | Map of coastal stations | Coastal observations for QLD | Marine services | Other Formats
Station Details ID: 200732 Name: HOLMES REEF Lat: -16.47 Lon: 147.87 Height: 1.9 m
Data from the previous 72 hours. | See also: Recent months at Holmes Reef
Date/Time
EST
Temp

°C
Wind Pressure Rain
since 9am
mm
Weather Cloud Vis
km
Sea
Height
m
Swell
Dir
 
Speed
knots
Gust
knots
hPa Trend Height
m
Period
s
Dir
26/10:30am 24.9 ESE 13 15 1016.6 - - - - - - - - -
26/10:15am 25.0 ESE 14 - 1016.3 - - - - - - - - -
26/10:00am 25.1 ESE 14 17 1016.7 - - - - - - - - -
26/09:30am 25.0 ESE 15 17 1016.8 - - - - - - - - -
26/09:15am 25.0 ESE 16 - 1016.5 - - - - - - - - -
26/09:00am 24.8 E 16 19 1016.8 - - - - - - - - -
26/08:30am 25.2 E 16 19 1016.6 - - - - - - - - -
26/08:15am 25.2 ESE 16 - 1016.2 - - - - - - - - -
26/08:00am 25.3 ESE 15 16 1016.4 - - - - - - - - -
26/07:30am 25.2 E 13 16 1016.4 - - - - - - - - -
26/07:15am 25.3 ESE 11 - 1016.0 - - - - - - - - -
26/07:00am 25.1 E 14 17 1016.2 - - - - - - - - -
26/06:30am 24.7 ESE 16 20 1015.9 - - - - - - - - -
26/06:15am 24.5 ESE 17 - 1015.4 - - - - - - - - -
26/06:00am 24.6 ESE 17 20 1015.5 - - - - - - - - -
26/05:30am 24.7 ESE 18 22 1015.1 - - - - - - - - -
26/05:15am 24.5 ESE 15 - 1014.7 - - - - - - - - -
26/05:00am 24.5 ESE 14 16 1014.9 - - - - - - - - -
26/04:30am 24.6 E 15 19 1014.8 - - - - - - - - -
26/04:15am 24.5 E 16 - 1014.5 - - - - - - - - -
26/04:00am 24.6 E 14 17 1014.7 - - - - - - - - -
26/03:30am 24.5 E 15 19 1014.7 - - - - - - - - -
26/03:15am 24.6 E 20 - 1014.4 - - - - - - - - -
26/03:00am 24.6 E 19 22 1014.6 - - - - - - - - -
26/02:30am 24.5 ESE 12 18 1014.9 - - - - - - - - -
26/02:15am 24.6 E 17 - 1014.8 - - - - - - - - -
26/02:00am 24.4 E 19 24 1015.3 - - - - - - - - -
26/01:30am 24.5 E 17 21 1015.6 - - - - - - - - -
26/01:15am 24.6 E 17 - 1015.4 - - - - - - - - -
26/01:00am 24.5 ESE 16 21 1015.8 - - - - - - - - -
26/12:30am 24.5 E 17 21 1016.3 - - - - - - - - -
26/12:15am 24.4 E 17 - 1016.2 - - - - - - - - -
26/12:00am 24.3 ESE 17 21 1016.7 - - - - - - - - -
 
Date/Time
EST
Temp

°C
Wind Pressure Rain
since 9am
mm
Weather Cloud Vis
km
Sea
Height
m
Swell
Dir
 
Speed
knots
Gust
knots
hPa Trend Height
m
Period
s
Dir
25/11:30pm 24.4 ESE 18 20 1017.2 - - - - - - - - -
25/11:15pm 24.4 E 18 - 1017.0 - - - - - - - - -
25/11:00pm 24.4 E 17 21 1017.4 - - - - - - - - -
25/10:30pm 24.4 E 16 19 1017.8 - - - - - - - - -
25/10:15pm 24.5 ESE 17 - 1017.4 - - - - - - - - -
25/10:00pm 24.4 E 19 21 1017.7 - - - - - - - - -
25/09:30pm 24.4 ESE 16 19 1017.6 - - - - - - - - -
25/09:15pm 24.5 ESE 17 - 1017.2 - - - - - - - - -
25/09:00pm 24.5 ESE 18 22 1017.4 - - - - - - - - -
25/08:30pm 24.5 ESE 18 21 1017.2 - - - - - - - - -
25/08:15pm 24.5 ESE 18 - 1016.8 - - - - - - - - -
25/08:00pm 24.6 ESE 17 20 1017.1 - - - - - - - - -
25/07:30pm 24.6 ESE 18 21 1016.7 - - - - - - - - -
25/07:15pm 24.7 ESE 18 - 1016.2 - - - - - - - - -
25/07:00pm 24.7 ESE 19 21 1016.3 - - - - - - - - -
25/06:30pm 24.7 ESE 19 21 1016.1 - - - - - - - - -
25/06:15pm 24.8 ESE 18 - 1015.7 - - - - - - - - -
25/06:00pm 24.7 ESE 18 21 1015.8 - - - - - - - - -
25/05:30pm 24.9 ESE 19 22 1015.4 - - - - - - - - -
25/05:15pm 25.0 ESE 19 - 1014.8 - - - - - - - - -
25/05:00pm 25.1 ESE 19 22 1014.9 - - - - - - - - -
25/04:30pm 25.1 ESE 18 21 1014.6 - - - - - - - - -
25/04:15pm 24.9 ESE 20 - 1014.2 - - - - - - - - -
25/04:00pm 25.0 ESE 17 21 1014.6 - - - - - - - - -
25/03:30pm 25.0 ESE 17 21 1014.8 - - - - - - - - -
25/03:15pm 25.2 ESE 17 - 1014.5 - - - - - - - - -
25/03:00pm 25.2 ESE 17 21 1015.0 - - - - - - - - -
25/02:30pm 25.0 ESE 17 20 1015.3 - - - - - - - - -
25/02:15pm 25.0 E 17 - 1015.0 - - - - - - - - -
25/02:00pm 25.0 ESE 15 18 1015.4 - - - - - - - - -
25/01:30pm 24.7 ESE 15 17 1015.7 - - - - - - - - -
25/01:15pm 24.7 ESE 17 - 1015.5 - - - - - - - - -
25/01:00pm 25.0 ESE 17 20 1015.9 - - - - - - - - -
25/12:30pm 24.9 SE 16 19 1016.2 - - - - - - - - -
25/12:15pm 24.7 SE 17 - 1016.0 - - - - - - - - -
25/12:00pm 24.7 ESE 19 21 1016.6 - - - - - - - - -
25/11:30am 24.8 SE 18 22 1017.0 - - - - - - - - -
25/11:15am 24.5 ESE 22 - 1016.8 - - - - - - - - -
25/11:00am 24.7 SE 18 21 1017.4 - - - - - - - - -
25/10:30am 25.0 ESE 18 21 1017.5 - - - - - - - - -
25/10:15am 24.9 ESE 18 - 1017.3 - - - - - - - - -
25/10:00am 25.0 ESE 19 22 1017.7 - - - - - - - - -
25/09:30am 24.8 SE 19 23 1018.0 - - - - - - - - -
25/09:15am 25.0 ESE 19 - 1017.8 - - - - - - - - -
25/09:00am 24.9 ESE 19 23 1018.0 - - - - - - - - -
25/08:30am 24.9 SE 18 21 1018.1 - - - - - - - - -
25/08:15am 24.9 ESE 16 - 1017.7 - - - - - - - - -
25/08:00am 25.0 ESE 17 20 1018.0 - - - - - - - - -
25/07:30am 24.9 ESE 16 19 1017.7 - - - - - - - - -
25/07:15am 25.0 ESE 19 - 1017.2 - - - - - - - - -
25/07:00am 25.1 ESE 20 24 1017.4 - - - - - - - - -
25/06:30am 24.4 E 19 23 1017.2 - - - - - - - - -
25/06:15am 24.8 ESE 18 - 1016.6 - - - - - - - - -
25/06:00am 24.9 ESE 18 22 1016.7 - - - - - - - - -
25/05:30am 24.6 ESE 21 25 1016.4 - - - - - - - - -
25/05:15am 24.5 ESE 20 - 1016.1 - - - - - - - - -
25/05:00am 24.4 SE 21 25 1016.3 - - - - - - - - -
25/04:30am 24.5 SE 21 25 1016.0 - - - - - - - - -
25/04:15am 24.6 SE 23 - 1015.6 - - - - - - - - -
25/04:00am 24.5 SE 23 27 1015.7 - - - - - - - - -
25/03:30am 24.7 ESE 21 25 1015.7 - - - - - - - - -
25/03:15am 24.7 ESE 20 - 1015.4 - - - - - - - - -
25/03:00am 24.6 ESE 18 22 1015.6 - - - - - - - - -
25/02:30am 24.5 ESE 22 27 1015.7 - - - - - - - - -
25/02:15am 24.9 ESE 23 - 1015.5 - - - - - - - - -
25/02:00am 24.5 ESE 22 26 1015.8 - - - - - - - - -
25/01:30am 24.5 ESE 23 26 1016.0 - - - - - - - - -
25/01:15am 24.5 ESE 23 - 1015.9 - - - - - - - - -
25/01:00am 24.6 ESE 23 26 1016.4 - - - - - - - - -
25/12:30am 24.4 SE 22 25 1016.7 - - - - - - - - -
25/12:15am 24.5 SE 24 - 1016.6 - - - - - - - - -
25/12:00am 24.8 SE 23 27 1017.0 - - - - - - - - -
 
Date/Time
EST
Temp

°C
Wind Pressure Rain
since 9am
mm
Weather Cloud Vis
km
Sea
Height
m
Swell
Dir
 
Speed
knots
Gust
knots
hPa Trend Height
m
Period
s
Dir
24/11:30pm 24.7 SE 23 26 1017.4 - - - - - - - - -
24/11:15pm 24.6 ESE 22 - 1017.3 - - - - - - - - -
24/11:00pm 24.6 ESE 22 25 1017.8 - - - - - - - - -
24/10:30pm 24.7 ESE 22 25 1018.1 - - - - - - - - -
24/10:15pm 24.7 SE 23 - 1017.8 - - - - - - - - -
24/10:00pm 24.6 SE 23 27 1018.0 - - - - - - - - -
24/09:30pm 24.7 SE 20 25 1017.9 - - - - - - - - -
24/09:15pm 24.6 SE 20 - 1017.4 - - - - - - - - -
24/09:00pm 24.7 ESE 21 25 1017.7 - - - - - - - - -
24/08:30pm 24.7 SE 20 24 1017.5 - - - - - - - - -
24/08:15pm 24.8 SE 21 - 1017.1 - - - - - - - - -
24/08:00pm 24.7 SE 21 26 1017.2 - - - - - - - - -
24/07:30pm 24.7 ESE 20 23 1017.1 - - - - - - - - -
24/07:15pm 24.7 SE 21 - 1016.7 - - - - - - - - -
24/07:00pm 24.7 ESE 20 24 1016.9 - - - - - - - - -
24/06:30pm 24.7 SE 21 23 1016.6 - - - - - - - - -
24/06:15pm 24.7 SE 20 - 1016.2 - - - - - - - - -
24/06:00pm 24.7 SE 19 23 1016.3 - - - - - - - - -
24/05:30pm 24.9 SE 20 24 1016.1 - - - - - - - - -
24/05:15pm 24.8 SE 20 - 1015.6 - - - - - - - - -
24/05:00pm 24.8 SE 20 23 1015.6 - - - - - - - - -
24/04:30pm 24.9 SE 19 22 1015.4 - - - - - - - - -
24/04:15pm 24.9 SE 19 - 1015.0 - - - - - - - - -
24/04:00pm 24.8 SE 19 22 1015.2 - - - - - - - - -
24/03:30pm 25.0 SE 18 19 1015.4 - - - - - - - - -
24/03:15pm 25.0 SE 18 - 1015.1 - - - - - - - - -
24/03:00pm 24.9 SE 18 20 1015.5 - - - - - - - - -
24/02:30pm 25.0 SE 17 21 1015.6 - - - - - - - - -
24/02:15pm 24.8 SE 18 - 1015.3 - - - - - - - - -
24/02:00pm 24.9 SE 18 20 1015.7 - - - - - - - - -
24/01:30pm 24.9 SE 18 21 1016.0 - - - - - - - - -
24/01:15pm 24.8 ESE 18 - 1015.8 - - - - - - - - -
24/01:00pm 25.0 SE 18 20 1016.3 - - - - - - - - -
24/12:30pm 24.8 SE 16 19 1016.6 - - - - - - - - -
24/12:15pm 24.8 SE 17 - 1016.5 - - - - - - - - -
24/12:00pm 24.9 SE 18 21 1017.0 - - - - - - - - -
24/11:30am 24.9 ESE 17 20 1017.5 - - - - - - - - -
24/11:15am 24.9 ESE 17 - 1017.3 - - - - - - - - -
24/11:00am 24.7 ESE 18 21 1017.8 - - - - - - - - -
24/10:30am 24.8 SE 18 20 1018.0 - - - - - - - - -
24/10:15am 24.8 ESE 18 - 1017.7 - - - - - - - - -
24/10:00am 24.9 SE 19 22 1018.1 - - - - - - - - -
24/09:30am 24.9 ESE 17 19 1018.3 - - - - - - - - -
24/09:15am 24.8 ESE 18 - 1018.0 - - - - - - - - -
24/09:00am 24.9 ESE 19 23 1018.3 - - - - - - - - -
24/08:30am 24.9 ESE 20 24 1018.3 - - - - - - - - -
24/08:15am 24.8 ESE 20 - 1017.8 - - - - - - - - -
24/08:00am 24.9 ESE 20 22 1018.1 - - - - - - - - -
24/07:30am 25.2 SE 19 23 1017.7 - - - - - - - - -
24/07:15am 24.8 SE 19 - 1017.3 - - - - - - - - -
24/07:00am 24.7 SE 21 24 1017.5 - - - - - - - - -
24/06:30am 24.7 SE 20 24 1017.1 - - - - - - - - -
24/06:15am 24.5 SE 21 - 1016.6 - - - - - - - - -
24/06:00am 24.5 ESE 20 25 1016.8 - - - - - - - - -
24/05:30am 24.4 ESE 20 23 1016.5 - - - - - - - - -
24/05:15am 24.3 ESE 21 - 1015.9 - - - - - - - - -
24/05:00am 24.4 ESE 20 24 1016.0 - - - - - - - - -
24/04:30am 24.3 ESE 20 24 1015.8 - - - - - - - - -
24/04:15am 24.3 ESE 21 - 1015.5 - - - - - - - - -
24/04:00am 24.2 ESE 19 24 1015.8 - - - - - - - - -
24/03:30am 24.3 ESE 19 22 1015.5 - - - - - - - - -
24/03:15am 24.2 ESE 19 - 1015.2 - - - - - - - - -
24/03:00am 24.5 ESE 20 24 1015.6 - - - - - - - - -
24/02:30am 24.3 ESE 21 24 1015.9 - - - - - - - - -
24/02:15am 24.4 ESE 19 - 1015.7 - - - - - - - - -
24/02:00am 24.4 ESE 21 23 1016.1 - - - - - - - - -
24/01:30am 24.6 ESE 20 23 1016.3 - - - - - - - - -
24/01:15am 24.4 ESE 19 - 1016.2 - - - - - - - - -
24/01:00am 24.6 ESE 20 23 1016.6 - - - - - - - - -
24/12:30am 24.4 ESE 20 23 1017.0 - - - - - - - - -
24/12:15am 24.5 E 20 - 1016.9 - - - - - - - - -
24/12:00am 24.5 ESE 19 23 1017.4 - - - - - - - - -
 
Date/Time
EST
Temp

°C
Wind Pressure Rain
since 9am
mm
Weather Cloud Vis
km
Sea
Height
m
Swell
Dir
 
Speed
knots
Gust
knots
hPa Trend Height
m
Period
s
Dir
23/11:30pm 24.6 E 20 23 1017.6 - - - - - - - - -
23/11:15pm 24.4 E 20 - 1017.5 - - - - - - - - -
23/11:00pm 24.5 ESE 19 22 1017.9 - - - - - - - - -
23/10:30pm 24.8 ESE 20 23 1018.0 - - - - - - - - -
23/10:15pm 24.1 ESE 19 - 1017.7 - - - - - - - - -
23/09:30pm 24.3 ESE 19 22 1018.0 - - - - - - - - -
23/09:15pm 24.4 ESE 19 - 1017.6 - - - - - - - - -
23/09:00pm 24.5 ESE 19 21 1017.8 - - - - - - - - -
23/08:00pm 24.5 SE 19 22 1017.0 - - - - - - - - -
23/07:30pm 24.4 SE 19 23 1016.7 - - - - - - - - -
23/07:15pm 24.4 ESE 21 - 1016.2 - - - - - - - - -
23/07:00pm 24.3 SE 21 24 1016.3 - - - - - - - - -
23/06:15pm 24.5 SE 19 - 1015.6 - - - - - - - - -
23/06:00pm 24.2 SE 19 22 1015.8 - - - - - - - - -
23/05:30pm 24.6 SE 19 22 1015.4 - - - - - - - - -
23/05:15pm 24.4 SE 19 - 1015.1 - - - - - - - - -
23/05:00pm 24.6 SE 20 24 1015.2 - - - - - - - - -
23/04:30pm 24.7 SE 19 22 1014.9 - - - - - - - - -
23/04:15pm 24.5 SE 20 - 1014.4 - - - - - - - - -
23/04:00pm 24.5 SE 21 24 1014.6 - - - - - - - - -
23/03:30pm 24.4 SE 21 24 1014.4 - - - - - - - - -
23/03:15pm 24.9 SE 19 - 1014.2 - - - - - - - - -
23/03:00pm 24.8 SE 20 25 1014.6 - - - - - - - - -
23/02:30pm 24.8 SE 19 22 1014.6 - - - - - - - - -
23/02:15pm 24.8 SE 20 - 1014.3 - - - - - - - - -
23/02:00pm 24.8 SE 19 22 1014.8 - - - - - - - - -
23/01:30pm 24.9 SE 19 23 1015.1 - - - - - - - - -
23/01:15pm 24.8 SE 20 - 1014.9 - - - - - - - - -
23/01:00pm 24.7 SE 21 23 1015.4 - - - - - - - - -
23/12:30pm 24.8 SE 21 23 1015.8 - - - - - - - - -
23/12:15pm 25.0 SE 20 - 1015.8 - - - - - - - - -
23/12:00pm 24.9 SE 20 23 1016.4 - - - - - - - - -
23/11:30am 24.9 SE 20 23 1016.6 - - - - - - - - -
23/11:15am 24.7 SE 19 - 1016.4 - - - - - - - - -

Other Formats:

Comma delimited format used in spreadsheet applications
http://www.bom.gov.au/fwo/IDQ60701/IDQ60701.94289.axf

JavaScript Object Notation format (JSON) in row-major order
http://www.bom.gov.au/fwo/IDQ60701/IDQ60701.94289.json